METAR

METAR COR LDZA 221200Z 03011KT 340V060 9999 FEW025 BKN043 12/04 Q1023 BECMG 03015KT =
METAR LDSP 221230Z 35016G28KT 320V020 CAVOK 15/02 Q1019 NOSIG=
METAR LDDU 221230Z 29007KT 250V320 9999 FEW068 BKN073 13/04 Q1018 NOSIG =
METAR LDZD 221230Z 32011KT 290V360 9999 FEW030 SCT065 14/03 Q1021 NOSIG =
METAR LDPL 221200Z 26005KT 220V300 CAVOK 13/07 Q1022 NOSIG=
METAR LDOS 221200Z 29009KT 9999 BKN030 09/07 Q1020=
METAR LDRI 221230Z 28006KT 240V360 9999 SCT050 16/01 Q1022=

TAF

TAF LDZA 221125Z 2212/2312 VRB02KT 9999 SCT040
                 TX13/2213Z TNM04/2305Z
           BECMG 2212/2214 03015KT
    PROB40 TEMPO 2214/2300 03020G35KT=
TAF LDSP 221125Z 2212/2312 33012KT 9999 SCT040
                 TX15/2212Z TNM02/2306Z
    PROB30 TEMPO 2212/2301 01015G25KT
           BECMG 2218/2220 02020G35KT
           TEMPO 2223/2312 04030G50KT
    PROB40 TEMPO 2302/2310 04040G60KT=
TAF LDDU 221125Z 2212/2312 30012KT 9999 SCT050
                 TX15/2214Z TN00/2305Z
           BECMG 2214/2216 02018KT
           TEMPO 2215/2222 02020G33KT
           BECMG 2220/2222 02035G55KT
    PROB40 TEMPO 2300/2309 02045G65KT=
TAF LDZD 221125Z 2212/2312 30010KT 9999 SCT040
                 TX14/2213Z TNM03/2306Z
           BECMG 2212/2214 03012KT
    PROB40 TEMPO 2215/2301 03018G28KT
           BECMG 2223/2301 03020G35KT
    PROB40 TEMPO 2303/2312 03030G50KT=
TAF LDPL 221125Z 2212/2312 29007KT CAVOK
                 TX13/2213Z TNM01/2301Z
           BECMG 2214/2216 06020KT
           TEMPO 2217/2312 06025G40KT
    PROB40 TEMPO 2221/2312 06035G55KT=
TAF LDOS 221125Z 2212/2312 30012KT 9999 BKN030
                 TX09/2212Z TNM05/2305Z
    PROB30 TEMPO 2212/2215 4000 -RA
           BECMG 2213/2215 03015KT
    PROB40 TEMPO 2214/2300 03020G35KT
    PROB30 TEMPO 2300/2308 03020G35KT=
TAF LDRI 221125Z 2212/2312 32005KT 9999 SCT035
                 TX13/2214Z TNM02/2304Z
           BECMG 2214/2216 05020KT
    PROB40 TEMPO 2215/2218 05020G35KT
           BECMG 2217/2219 05030G45KT
           TEMPO 2218/2312 05035G70KT
    PROB30 TEMPO 2309/2312 VRB15G30KT=

SIGMET

AIRMET

LDZO AIRMET 11 VALID 221059/221300 LDZA-
LDZO ZAGREB FIR MOD TURB FCST WI N4545 E01818 - N4509 E01802 - N4407
E01615 - N4539 E01436 - N4632 E01624 - N4545 E01818 SFC/6000FT STNR
NC=
LDZO AIRMET 12 VALID 221107/221300 LDZA-
LDZO ZAGREB FIR MOD MTW FCST WI N4633 E01621 - N4545 E01819 - N4508
E01801 - N4411 E01614 - N4539 E01434 - N4633 E01621 ABV 6000FT STNR
NC=
LDZO AIRMET 13 VALID 221110/221300 LDZA-
LDZO ZAGREB FIR MOD ICE FCST WI N4631 E01624 - N4554 E01850 - N4511
E01926 - N4331 E01654 - N4434 E01504 - N4539 E01435 - N4631 E01624
ABV 4000FT STNR NC=
LDZO AIRMET 14 VALID 221113/221300 LDZA-
LDZO ZAGREB FIR MT OBSC FCST WI N4504 E01456 - N4528 E01415 - N4540
E01436 - N4528 E01520 - N4330 E01710 - N4339 E01620 - N4441 E01458 -
N4504 E01456 ABV 2000FT STNR NC=

Remark

Ukoliko se brzina i smjer vjetra ne mogu odrediti zbog privremenog kvara sustava/indikatora,
informacija o vjetru u METAR izvješću bit će prikazana kao "/////KT".

 

Disclaimer

 

In case of temporary system/sensor failure, wind speed and direction data will be represented as "/////KT" in METAR report.

 

         

      Politika MET podataka